Terminal Aerodrome Forecast
Issued by NWS Detroit/Pontiac, MI

Home | Current Version | Previous Version | Text Only | Print | Product List | Glossary On
Versions: 1 2 3 4 5 6 7 8 9 10 11 12 13 14 15 16
000
FTUS43 KDTX 152300
TAFFNT
TAF
KFNT 152321Z 1600/1624 25008KT P6SM -SHRA SCT030 OVC060
      TEMPO 1600/1603 BKN030
     FM160300 30006KT 6SM BR SCT008 BKN015
      TEMPO 1604/1607 BKN008
     FM160900 32004KT P6SM SCT008
     FM161400 29007KT P6SM SCT025 BKN040
     FM162100 28006KT P6SM SCT050=

USA.gov is the U.S. government's official web portal to all federal, state and local government web resources and services.